Time;durP1;ratioP1;P1;durP2;ratioP2;P2;SDS_P1;SDS_P2;PMS_P1;PMS_P2;Temp;Humidity;BMP_temperature;BMP_pressure;BME280_temperature;BME280_humidity;BME280_pressure;Samples;Min_cycle;Max_cycle;Signal;HPM_P1;HPM_P2
2023/09/19 00:00:21;;;;;;;3.13;2.08;;;14.80;99.90;;;;;;5070394;28;20040;-62
2023/09/19 00:03:01;;;;;;;5.03;1.88;;;14.80;99.90;;;;;;5062004;28;20059;-62
2023/09/19 00:05:30;;;;;;;4.30;1.90;;;14.80;99.90;;;;;;5058873;28;20528;-62
2023/09/19 00:08:00;;;;;;;4.88;2.00;;;14.70;99.90;;;;;;5055434;28;20044;-62
2023/09/19 00:10:31;;;;;;;5.63;2.20;;;14.70;99.90;;;;;;5068401;28;20144;-62
2023/09/19 00:12:59;;;;;;;4.43;2.47;;;14.70;99.90;;;;;;5063952;28;20436;-61
2023/09/19 00:15:29;;;;;;;6.38;2.28;;;14.70;99.90;;;;;;5070821;28;20044;-62
2023/09/19 00:17:56;;;;;;;4.60;2.90;;;14.60;99.90;;;;;;5071757;28;20041;-61
2023/09/19 00:20:24;;;;;;;4.32;2.80;;;14.70;99.90;;;;;;5066900;28;20041;-62
2023/09/19 00:22:53;;;;;;;3.72;2.70;;;14.70;99.90;;;;;;5071005;28;20125;-62
2023/09/19 00:25:20;;;;;;;4.45;2.95;;;14.60;99.90;;;;;;5068977;28;20048;-62
2023/09/19 00:27:49;;;;;;;;;;;14.60;99.90;;;;;;5071619;28;20123;-62
2023/09/19 00:30:19;;;;;;;5.75;2.90;;;14.60;99.90;;;;;;5070968;28;20353;-62
2023/09/19 00:32:48;;;;;;;4.13;3.00;;;14.60;99.90;;;;;;5063598;28;20044;-63
2023/09/19 00:35:15;;;;;;;5.57;3.20;;;14.60;99.90;;;;;;5061990;28;20052;-62
2023/09/19 00:37:42;;;;;;;7.53;3.13;;;14.60;99.90;;;;;;5071244;28;20047;-62
2023/09/19 00:40:15;;;;;;;4.75;2.80;;;14.60;99.90;;;;;;5067552;28;20036;-61
2023/09/19 00:42:46;;;;;;;7.07;2.80;;;14.70;99.90;;;;;;5059505;28;20049;-62
2023/09/19 00:45:15;;;;;;;5.20;2.72;;;14.70;99.90;;;;;;5064530;28;20140;-62
2023/09/19 00:47:51;;;;;;;4.53;2.53;;;14.60;99.90;;;;;;5064649;28;20508;-62
2023/09/19 00:50:21;;;;;;;3.15;2.13;;;14.60;99.90;;;;;;5071305;28;20516;-61
2023/09/19 00:52:53;;;;;;;4.55;2.22;;;14.70;99.90;;;;;;5069384;28;20552;-62
2023/09/19 00:55:20;;;;;;;3.58;2.22;;;14.70;99.90;;;;;;5062628;28;20091;-63
2023/09/19 00:57:49;;;;;;;;;;;14.70;99.90;;;;;;5060307;28;20044;-62
2023/09/19 01:00:19;;;;;;;5.10;2.42;;;14.70;99.90;;;;;;5067874;28;20337;-62
2023/09/19 01:02:46;;;;;;;4.80;2.80;;;14.60;99.90;;;;;;5070957;28;20105;-62
2023/09/19 01:05:13;;;;;;;5.85;2.92;;;14.70;99.90;;;;;;5070825;28;20032;-62
2023/09/19 01:07:40;;;;;;;2.97;2.40;;;14.70;99.90;;;;;;5061071;28;20503;-62
2023/09/19 01:10:17;;;;;;;3.67;2.65;;;14.60;99.90;;;;;;5064470;28;20076;-62
2023/09/19 01:12:47;;;;;;;3.83;2.90;;;14.60;99.90;;;;;;5070939;28;20648;-62
2023/09/19 01:15:40;;;;;;;4.68;3.00;;;14.70;99.90;;;;;;5064190;28;20040;-63
2023/09/19 01:18:06;;;;;;;4.18;2.55;;;14.60;99.90;;;;;;5063291;28;20112;-62
2023/09/19 01:20:42;;;;;;;7.00;2.80;;;14.70;99.90;;;;;;5066851;28;20124;-62
2023/09/19 01:23:31;;;;;;;5.72;2.47;;;14.70;99.90;;;;;;5073364;28;20090;-62
2023/09/19 01:26:00;;;;;;;;;;;14.70;99.90;;;;;;5057524;28;20037;-62
2023/09/19 01:28:40;;;;;;;4.00;2.88;;;14.60;99.90;;;;;;5062460;28;19920;-62
2023/09/19 01:31:10;;;;;;;4.50;2.85;;;14.60;99.90;;;;;;5066461;28;20037;-61
2023/09/19 01:34:12;;;;;;;6.93;2.55;;;14.60;99.90;;;;;;5071852;28;20056;-62
2023/09/19 01:36:39;;;;;;;3.65;2.35;;;14.50;99.90;;;;;;5032163;28;20064;-62
2023/09/19 01:39:10;;;;;;;4.47;2.60;;;14.50;99.90;;;;;;5056280;28;20505;-61
2023/09/19 01:42:04;;;;;;;6.35;2.58;;;14.60;99.90;;;;;;5073581;28;20656;-63
2023/09/19 01:44:47;;;;;;;7.82;2.85;;;14.60;99.90;;;;;;5074633;28;20046;-63
2023/09/19 01:47:27;;;;;;;4.35;2.65;;;14.60;99.90;;;;;;5065389;28;20083;-62
2023/09/19 01:50:19;;;;;;;2.67;2.38;;;14.60;99.90;;;;;;5072726;28;20072;-62
2023/09/19 01:52:54;;;;;;;5.47;2.63;;;14.60;99.90;;;;;;5074271;28;20408;-62
2023/09/19 01:55:22;;;;;;;4.80;2.53;;;14.60;99.90;;;;;;5065462;28;20032;-62
2023/09/19 01:58:00;;;;;;;5.90;3.03;;;14.60;99.90;;;;;;5063883;28;20040;-62
2023/09/19 02:00:29;;;;;;;5.07;3.40;;;14.70;99.90;;;;;;5073099;28;20135;-62
2023/09/19 02:02:58;;;;;;;10.13;3.20;;;14.70;99.90;;;;;;5070593;28;20040;-62
2023/09/19 02:05:27;;;;;;;9.38;3.13;;;14.60;99.90;;;;;;5072828;28;20036;-62
2023/09/19 02:07:55;;;;;;;4.80;2.88;;;14.70;99.90;;;;;;5062307;28;20048;-62
2023/09/19 02:10:23;;;;;;;5.20;2.80;;;14.70;99.90;;;;;;5072805;28;20394;-63
2023/09/19 02:12:50;;;;;;;5.63;2.35;;;14.70;99.90;;;;;;5071320;28;20086;-62
2023/09/19 02:15:17;;;;;;;4.50;2.25;;;14.70;99.90;;;;;;5073895;28;20115;-63
2023/09/19 02:17:45;;;;;;;2.95;1.85;;;14.70;99.90;;;;;;5065078;28;20125;-62
2023/09/19 02:20:14;;;;;;;4.30;2.45;;;14.80;99.90;;;;;;5072306;28;20076;-62
2023/09/19 02:22:42;;;;;;;8.10;2.80;;;14.80;99.90;;;;;;5063819;28;20036;-63
2023/09/19 02:25:09;;;;;;;6.20;3.30;;;14.80;99.90;;;;;;5070168;28;20040;-61
2023/09/19 02:27:37;;;;;;;4.63;3.15;;;14.70;99.90;;;;;;5073367;28;20238;-62
2023/09/19 02:30:06;;;;;;;7.05;3.85;;;14.80;99.90;;;;;;5073123;28;20029;-62
2023/09/19 02:32:38;;;;;;;6.88;4.38;;;14.80;99.90;;;;;;5070390;28;20048;-63
2023/09/19 02:35:06;;;;;;;5.47;3.25;;;14.80;99.90;;;;;;5071950;28;20036;-62
2023/09/19 02:37:33;;;;;;;6.28;3.67;;;14.80;99.90;;;;;;5063794;28;20040;-62
2023/09/19 02:40:00;;;;;;;5.72;3.78;;;14.80;99.90;;;;;;5071590;28;20040;-63
2023/09/19 02:42:27;;;;;;;5.55;3.50;;;14.80;99.90;;;;;;5069359;28;20145;-63
2023/09/19 02:44:54;;;;;;;5.60;3.13;;;14.80;99.90;;;;;;5072067;28;20493;-63
2023/09/19 02:47:21;;;;;;;4.88;3.65;;;14.80;99.90;;;;;;5073290;28;20056;-62
2023/09/19 02:49:48;;;;;;;6.88;3.75;;;14.80;99.90;;;;;;5070460;28;20041;-62
2023/09/19 02:52:15;;;;;;;4.20;3.35;;;14.80;99.90;;;;;;5071769;28;20119;-63
2023/09/19 02:54:44;;;;;;;8.38;3.50;;;14.80;99.90;;;;;;5071465;28;20049;-62
2023/09/19 02:57:13;;;;;;;6.05;2.97;;;14.80;99.90;;;;;;5064008;28;20064;-62
2023/09/19 02:59:42;;;;;;;8.02;2.83;;;14.80;99.90;;;;;;5068786;28;20043;-61
2023/09/19 03:02:09;;;;;;;4.57;2.65;;;14.70;99.90;;;;;;5071197;28;20040;-62
2023/09/19 03:04:37;;;;;;;4.72;2.40;;;14.70;99.90;;;;;;5069299;28;20408;-62
2023/09/19 03:07:04;;;;;;;5.22;2.75;;;14.70;99.90;;;;;;5070873;28;20098;-63
2023/09/19 03:09:31;;;;;;;6.82;3.75;;;14.60;99.90;;;;;;5062841;28;20044;-62
2023/09/19 03:11:58;;;;;;;5.18;3.00;;;14.70;99.90;;;;;;5069351;28;20083;-63
2023/09/19 03:14:30;;;;;;;5.13;3.90;;;14.70;99.90;;;;;;5071514;28;20135;-62
2023/09/19 03:16:59;;;;;;;6.55;3.38;;;14.70;99.90;;;;;;5071221;28;20131;-63
2023/09/19 03:19:26;;;;;;;6.85;2.97;;;14.70;99.90;;;;;;5065139;28;20052;-63
2023/09/19 03:21:57;;;;;;;6.10;3.20;;;14.70;99.90;;;;;;5065261;28;20119;-62
2023/09/19 03:24:24;;;;;;;;;;;14.70;99.90;;;;;;5068987;28;20032;-62
2023/09/19 03:26:51;;;;;;;7.85;4.45;;;14.70;99.90;;;;;;5059521;28;19931;-63
2023/09/19 03:29:18;;;;;;;7.50;5.00;;;14.80;99.90;;;;;;5061828;28;20044;-63
2023/09/19 03:31:46;;;;;;;9.63;5.30;;;14.70;99.90;;;;;;5064095;28;20054;-61
2023/09/19 03:34:13;;;;;;;11.93;5.25;;;14.70;99.90;;;;;;5061173;28;20496;-62
2023/09/19 03:36:41;;;;;;;8.02;5.28;;;14.70;99.90;;;;;;5062256;28;20041;-63
2023/09/19 03:39:08;;;;;;;6.97;5.00;;;14.70;99.90;;;;;;5066337;28;20102;-63
2023/09/19 03:41:36;;;;;;;11.98;5.85;;;14.70;99.90;;;;;;5065697;28;20125;-63
2023/09/19 03:44:04;;;;;;;10.25;5.68;;;14.70;99.90;;;;;;5067539;28;20093;-63
2023/09/19 03:46:32;;;;;;;11.38;6.13;;;14.80;99.90;;;;;;5068624;28;20047;-61
2023/09/19 03:48:59;;;;;;;10.70;5.72;;;14.70;99.90;;;;;;5058675;28;20053;-63
2023/09/19 03:51:26;;;;;;;9.10;5.30;;;14.70;99.90;;;;;;5063290;28;20040;-62
2023/09/19 03:53:53;;;;;;;8.80;5.90;;;14.70;99.90;;;;;;5067415;28;20079;-62
2023/09/19 03:56:20;;;;;;;11.40;5.85;;;14.60;99.90;;;;;;5059528;28;20076;-62
2023/09/19 03:58:47;;;;;;;9.30;5.85;;;14.70;99.90;;;;;;5051712;28;20480;-63
2023/09/19 04:01:14;;;;;;;7.85;5.65;;;14.70;99.90;;;;;;5050911;28;20041;-62
2023/09/19 04:03:47;;;;;;;8.05;5.55;;;14.70;99.90;;;;;;5060266;28;20041;-63
2023/09/19 04:06:15;;;;;;;9.98;5.00;;;14.70;99.90;;;;;;5058870;28;20398;-63
2023/09/19 04:08:44;;;;;;;6.57;4.68;;;14.70;99.90;;;;;;5057409;28;20043;-62
2023/09/19 04:11:11;;;;;;;10.82;5.35;;;14.70;99.90;;;;;;5070137;28;20139;-63
2023/09/19 04:13:38;;;;;;;;;;;14.70;99.90;;;;;;5064894;28;20036;-63
2023/09/19 04:16:06;;;;;;;8.32;5.00;;;14.60;99.90;;;;;;5070424;28;20262;-62
2023/09/19 04:18:37;;;;;;;8.57;4.65;;;14.70;99.90;;;;;;5070160;28;20049;-63
2023/09/19 04:21:05;;;;;;;6.47;4.47;;;14.70;99.90;;;;;;5056967;28;20037;-63
2023/09/19 04:23:33;;;;;;;6.82;5.13;;;14.80;99.90;;;;;;5068123;28;20410;-63
2023/09/19 04:26:00;;;;;;;8.18;5.40;;;14.70;99.90;;;;;;5070103;28;20475;-63
2023/09/19 04:28:27;;;;;;;10.80;5.55;;;14.70;99.90;;;;;;5071391;28;20048;-62
2023/09/19 04:30:55;;;;;;;8.10;5.35;;;14.70;99.90;;;;;;5064773;28;20052;-63
2023/09/19 04:33:22;;;;;;;10.35;5.53;;;14.70;99.90;;;;;;5071266;28;20579;-63
2023/09/19 04:35:50;;;;;;;6.38;4.63;;;14.70;99.90;;;;;;5071427;28;20075;-63
2023/09/19 04:38:20;;;;;;;5.20;4.00;;;14.70;99.90;;;;;;5068794;28;20107;-62
2023/09/19 04:40:47;;;;;;;5.75;4.10;;;14.70;99.90;;;;;;5063699;28;20453;-63
2023/09/19 04:43:15;;;;;;;7.35;4.22;;;14.80;99.90;;;;;;5071172;28;20052;-63
2023/09/19 04:45:42;;;;;;;5.80;4.30;;;14.80;99.90;;;;;;5068172;28;20044;-62
2023/09/19 04:48:09;;;;;;;6.30;4.65;;;14.80;99.90;;;;;;5062619;28;20050;-62
2023/09/19 04:50:36;;;;;;;7.38;4.78;;;14.80;99.90;;;;;;5070471;28;20477;-62
2023/09/19 04:53:04;;;;;;;5.90;4.50;;;14.80;99.90;;;;;;5075022;28;20090;-63
2023/09/19 04:55:32;;;;;;;5.05;4.38;;;14.80;99.90;;;;;;5063067;28;20057;-62
2023/09/19 04:57:59;;;;;;;9.35;5.00;;;14.80;99.90;;;;;;5064142;28;20131;-63
2023/09/19 05:00:30;;;;;;;7.18;4.80;;;14.80;99.90;;;;;;5071777;28;20478;-62
2023/09/19 05:02:57;;;;;;;7.90;5.00;;;14.80;99.90;;;;;;5069771;28;20106;-63
2023/09/19 05:05:25;;;;;;;7.68;5.22;;;14.80;99.90;;;;;;5068230;28;20098;-61
2023/09/19 05:07:54;;;;;;;12.65;5.30;;;14.80;99.90;;;;;;5068610;28;20032;-62
2023/09/19 05:10:21;;;;;;;9.85;5.22;;;14.80;99.90;;;;;;5059994;28;20421;-63
2023/09/19 05:12:51;;;;;;;;;;;14.80;99.90;;;;;;5075082;28;20090;-63
2023/09/19 05:15:18;;;;;;;8.60;5.13;;;14.80;99.90;;;;;;5065105;28;19920;-63
2023/09/19 05:17:50;;;;;;;9.73;4.85;;;14.80;99.90;;;;;;5069442;28;20048;-63
2023/09/19 05:20:29;;;;;;;8.15;4.97;;;14.80;99.90;;;;;;5074219;28;20059;-62
2023/09/19 05:23:02;;;;;;;6.57;4.50;;;14.80;99.90;;;;;;5074420;28;20041;-63
2023/09/19 05:25:31;;;;;;;11.82;4.90;;;14.80;99.90;;;;;;5059787;28;20515;-63
2023/09/19 05:27:58;;;;;;;8.68;5.30;;;14.70;99.90;;;;;;5053538;28;20049;-61
2023/09/19 05:30:29;;;;;;;9.93;4.80;;;14.70;99.90;;;;;;5065373;28;20036;-63
2023/09/19 05:32:56;;;;;;;6.65;4.30;;;14.70;99.90;;;;;;5066874;28;20071;-63
2023/09/19 05:35:24;;;;;;;6.72;4.18;;;14.70;99.90;;;;;;5073058;28;20055;-63
2023/09/19 05:37:52;;;;;;;7.70;4.30;;;14.70;99.90;;;;;;5073192;28;20036;-63
2023/09/19 05:40:19;;;;;;;7.60;3.88;;;14.80;99.90;;;;;;5070941;28;20090;-63
2023/09/19 05:42:46;;;;;;;;;;;14.80;99.90;;;;;;5069756;28;20033;-63
2023/09/19 05:45:14;;;;;;;8.10;3.42;;;14.80;99.90;;;;;;5073602;28;19925;-63
2023/09/19 05:47:42;;;;;;;7.93;3.15;;;14.80;99.90;;;;;;5064356;28;20116;-62
2023/09/19 05:50:09;;;;;;;5.68;2.78;;;14.80;99.90;;;;;;5073879;28;20063;-63
2023/09/19 05:52:37;;;;;;;3.38;2.58;;;14.80;99.90;;;;;;5073197;28;20041;-63
2023/09/19 05:55:08;;;;;;;2.58;2.15;;;14.80;99.90;;;;;;5069700;28;20045;-63
2023/09/19 05:57:35;;;;;;;5.45;2.20;;;14.80;99.90;;;;;;5074503;28;20051;-63
2023/09/19 06:00:01;;;;;;;;;;;14.90;99.90;;;;;;5074086;28;20033;-63
2023/09/19 06:02:37;;;;;;;5.40;2.25;;;14.80;99.90;;;;;;5071982;28;19931;-62
2023/09/19 06:05:10;;;;;;;;;;;14.80;99.90;;;;;;5071468;28;20404;-63
2023/09/19 06:07:37;;;;;;;3.75;2.20;;;14.90;99.90;;;;;;5073919;28;20291;-63
2023/09/19 06:10:08;;;;;;;;;;;15.00;99.90;;;;;;5074476;28;20136;-63
2023/09/19 06:12:44;;;;;;;3.50;2.30;;;15.00;99.90;;;;;;5067665;28;19920;-63
2023/09/19 06:15:15;;;;;;;4.22;2.85;;;15.10;99.90;;;;;;5068598;28;20052;-62
2023/09/19 06:17:46;;;;;;;6.28;3.15;;;15.10;99.90;;;;;;5072025;28;20097;-63
2023/09/19 06:20:14;;;;;;;2.95;2.30;;;15.20;99.90;;;;;;5065895;28;20040;-63
2023/09/19 06:22:42;;;;;;;5.28;2.28;;;15.30;99.90;;;;;;5072551;28;20080;-63
2023/09/19 06:25:19;;;;;;;4.13;2.35;;;15.40;99.90;;;;;;5069257;28;20036;-63
2023/09/19 06:27:54;;;;;;;4.45;2.60;;;15.40;99.90;;;;;;5067101;28;20421;-62
2023/09/19 06:30:24;;;;;;;6.00;2.10;;;15.40;99.90;;;;;;5070898;28;20040;-63
2023/09/19 06:32:58;;;;;;;6.82;2.40;;;15.50;99.90;;;;;;5060665;28;20102;-62
2023/09/19 06:35:26;;;;;;;4.85;2.40;;;15.70;99.90;;;;;;5064014;28;20127;-63
2023/09/19 06:37:53;;;;;;;5.28;2.60;;;15.70;99.90;;;;;;5071866;28;20047;-63
2023/09/19 06:40:20;;;;;;;5.78;2.95;;;15.70;99.90;;;;;;5064615;28;20437;-63
2023/09/19 06:42:51;;;;;;;3.97;2.65;;;15.70;99.90;;;;;;5066937;28;20653;-62
2023/09/19 06:45:18;;;;;;;11.60;3.65;;;15.70;99.90;;;;;;5072648;28;20556;-63
2023/09/19 06:47:50;;;;;;;3.85;2.50;;;15.70;99.90;;;;;;5072952;28;20040;-63
2023/09/19 06:50:22;;;;;;;5.55;3.25;;;15.80;99.90;;;;;;5057807;28;20048;-63
2023/09/19 06:52:51;;;;;;;4.95;2.90;;;15.80;99.90;;;;;;5066881;28;20060;-62
2023/09/19 06:55:20;;;;;;;4.57;3.17;;;15.80;99.90;;;;;;5071345;28;20524;-63
2023/09/19 06:57:47;;;;;;;4.05;2.70;;;15.80;99.90;;;;;;5066909;28;20051;-63
2023/09/19 07:00:25;;;;;;;;;;;15.80;99.90;;;;;;5055097;28;20139;-62
2023/09/19 07:02:56;;;;;;;5.97;3.40;;;15.80;99.90;;;;;;5067039;28;19927;-63
2023/09/19 07:05:23;;;;;;;4.88;3.78;;;15.70;99.90;;;;;;5071156;28;20040;-62
2023/09/19 07:07:50;;;;;;;5.88;3.78;;;15.60;99.90;;;;;;5071413;28;20037;-62
2023/09/19 07:10:18;;;;;;;5.40;4.00;;;15.60;99.90;;;;;;5071176;28;20127;-62
2023/09/19 07:12:45;;;;;;;8.65;4.57;;;15.60;99.90;;;;;;5064419;28;20040;-62
2023/09/19 07:15:12;;;;;;;6.70;4.13;;;15.70;99.90;;;;;;5072164;28;20098;-63
2023/09/19 07:17:38;;;;;;;5.70;3.92;;;15.80;99.90;;;;;;5070894;28;20045;-63
2023/09/19 07:20:07;;;;;;;11.13;3.95;;;15.90;99.90;;;;;;5056043;28;20045;-63
2023/09/19 07:22:35;;;;;;;6.88;3.90;;;15.90;99.90;;;;;;5063684;28;20485;-63
2023/09/19 07:25:02;;;;;;;;;;;16.10;99.90;;;;;;5072452;28;20041;-62
2023/09/19 07:27:28;;;;;;;5.30;3.92;;;16.10;99.90;;;;;;5071853;28;19928;-62
2023/09/19 07:29:55;;;;;;;5.70;4.82;;;16.10;99.90;;;;;;5063826;28;20072;-63
2023/09/19 07:32:23;;;;;;;5.93;4.30;;;16.10;99.90;;;;;;5062474;28;20043;-62
2023/09/19 07:34:50;;;;;;;6.95;4.22;;;16.20;99.90;;;;;;5068453;28;20111;-62
2023/09/19 07:37:17;;;;;;;7.25;4.13;;;16.20;99.90;;;;;;5070512;28;20374;-63
2023/09/19 07:39:44;;;;;;;6.65;4.28;;;16.20;99.90;;;;;;5070966;28;20039;-62
2023/09/19 07:42:17;;;;;;;11.73;4.10;;;16.30;99.90;;;;;;5069306;28;21487;-63
2023/09/19 07:44:50;;;;;;;5.28;4.47;;;16.40;99.90;;;;;;5072026;28;20552;-62
2023/09/19 07:47:17;;;;;;;8.80;3.70;;;16.40;99.90;;;;;;5068784;28;20049;-62
2023/09/19 07:49:47;;;;;;;6.03;3.65;;;16.50;99.90;;;;;;5071616;28;20044;-63
2023/09/19 07:52:15;;;;;;;7.85;4.30;;;16.50;99.90;;;;;;5070320;28;20375;-62
2023/09/19 07:54:44;;;;;;;9.10;4.05;;;16.60;99.90;;;;;;5071562;28;20041;-63
2023/09/19 07:57:11;;;;;;;5.30;3.80;;;16.60;99.90;;;;;;5068839;28;20136;-63
2023/09/19 07:59:38;;;;;;;;;;;16.80;99.90;;;;;;5063590;28;20036;-62
2023/09/19 08:02:05;;;;;;;7.25;3.65;;;16.90;99.90;;;;;;5054669;28;19953;-63
2023/09/19 08:04:33;;;;;;;10.73;4.00;;;17.00;99.90;;;;;;5055606;28;20039;-62
2023/09/19 08:07:03;;;;;;;6.28;3.90;;;17.00;99.90;;;;;;5058144;28;20045;-63
2023/09/19 08:09:33;;;;;;;7.95;4.63;;;17.10;99.90;;;;;;5060812;28;20051;-63
2023/09/19 08:12:02;;;;;;;5.18;4.15;;;17.30;99.90;;;;;;5051050;28;20047;-63
2023/09/19 08:14:29;;;;;;;6.70;3.78;;;17.40;99.90;;;;;;5050497;28;20536;-63
2023/09/19 08:16:58;;;;;;;6.80;3.47;;;17.50;99.90;;;;;;5067290;28;20068;-63
2023/09/19 08:19:28;;;;;;;7.43;3.47;;;17.50;99.90;;;;;;5069477;28;20033;-63
2023/09/19 08:21:58;;;;;;;4.45;3.20;;;17.60;99.90;;;;;;5070723;28;20050;-63
2023/09/19 08:24:29;;;;;;;8.30;3.50;;;17.80;99.90;;;;;;5064101;28;20052;-62
2023/09/19 08:26:57;;;;;;;5.40;2.83;;;17.70;99.90;;;;;;5071286;28;20409;-62
2023/09/19 08:29:28;;;;;;;6.00;2.92;;;17.80;99.90;;;;;;5070402;28;20448;-63
2023/09/19 08:31:55;;;;;;;4.68;2.97;;;17.80;99.90;;;;;;5070922;28;20055;-62
2023/09/19 08:34:23;;;;;;;5.43;2.75;;;17.90;99.90;;;;;;5068203;28;20128;-62
2023/09/19 08:36:58;;;;;;;4.25;2.28;;;18.10;99.90;;;;;;5070920;28;20036;-62
2023/09/19 08:39:25;;;;;;;4.80;2.50;;;18.20;99.90;;;;;;5070450;28;20139;-63
2023/09/19 08:41:59;;;;;;;5.50;2.50;;;18.40;99.90;;;;;;5067598;28;20045;-63
2023/09/19 08:44:30;;;;;;;5.05;2.58;;;18.50;99.90;;;;;;5070651;28;20068;-62
2023/09/19 08:47:25;;;;;;;7.05;2.20;;;18.50;99.90;;;;;;5070789;28;20041;-62
2023/09/19 08:50:14;;;;;;;4.78;2.00;;;18.50;99.90;;;;;;5067078;28;20045;-63
2023/09/19 08:52:43;;;;;;;3.75;2.00;;;18.70;99.90;;;;;;5070342;28;20051;-62
2023/09/19 08:55:13;;;;;;;6.38;1.92;;;18.80;99.90;;;;;;5070851;28;20049;-63
2023/09/19 08:57:43;;;;;;;3.00;1.80;;;19.10;99.90;;;;;;5056315;28;20041;-63
2023/09/19 09:00:11;;;;;;;6.88;2.45;;;19.00;99.90;;;;;;5066015;28;20055;-63
2023/09/19 09:02:42;;;;;;;3.67;1.90;;;19.00;99.90;;;;;;5067792;28;20287;-63
2023/09/19 09:05:12;;;;;;;4.60;1.80;;;19.00;99.90;;;;;;5070769;28;20119;-63
2023/09/19 09:07:40;;;;;;;6.10;1.90;;;19.00;99.90;;;;;;5069612;28;20077;-63
2023/09/19 09:10:07;;;;;;;6.20;2.88;;;18.80;99.90;;;;;;5067554;28;20067;-62
2023/09/19 09:12:37;;;;;;;5.53;2.63;;;18.90;99.90;;;;;;5070407;28;20045;-63
2023/09/19 09:15:04;;;;;;;3.53;2.03;;;19.00;99.90;;;;;;5070364;28;20091;-63
2023/09/19 09:17:31;;;;;;;;;;;19.40;99.90;;;;;;5067898;28;20049;-63
2023/09/19 09:19:58;;;;;;;3.38;2.40;;;19.60;99.90;;;;;;5070224;28;19924;-63
2023/09/19 09:22:25;;;;;;;3.15;2.47;;;19.80;99.90;;;;;;5070001;28;20048;-63
2023/09/19 09:24:58;;;;;;;4.05;2.22;;;19.80;99.90;;;;;;5070725;28;20036;-63
2023/09/19 09:27:24;;;;;;;9.50;2.72;;;20.10;99.90;;;;;;5066727;28;20408;-63
2023/09/19 09:29:56;;;;;;;3.45;2.30;;;20.10;99.90;;;;;;5070371;28;20051;-62
2023/09/19 09:32:33;;;;;;;3.13;1.90;;;20.20;99.90;;;;;;5069244;28;20037;-63
2023/09/19 09:35:01;;;;;;;3.95;2.28;;;20.20;99.90;;;;;;5066349;28;20106;-62
2023/09/19 09:37:30;;;;;;;3.72;1.77;;;20.20;99.90;;;;;;5074174;28;20045;-62
2023/09/19 09:42:41;;;;;;;3.00;1.90;;;20.10;99.90;;;;;;5073867;28;20044;-63
2023/09/19 09:48:03;;;;;;;4.70;1.83;;;20.40;99.90;;;;;;5073944;28;20428;-63
2023/09/19 09:53:19;;;;;;;4.80;1.95;;;20.60;99.90;;;;;;5067042;28;20041;-63
2023/09/19 09:56:05;;;;;;;3.17;1.83;;;20.70;99.90;;;;;;5073677;28;20036;-61
2023/09/19 09:58:40;;;;;;;3.90;2.28;;;20.60;99.90;;;;;;5053905;28;20196;-63
2023/09/19 10:01:10;;;;;;;3.40;2.13;;;20.50;99.90;;;;;;5067122;28;20040;-63
2023/09/19 10:03:48;;;;;;;3.25;2.00;;;20.60;99.90;;;;;;5055690;28;20140;-63
2023/09/19 10:06:26;;;;;;;5.53;2.55;;;20.50;99.90;;;;;;5070310;28;20444;-63
2023/09/19 10:09:11;;;;;;;;;;;20.50;99.90;;;;;;5073826;28;20032;-63
2023/09/19 10:11:45;;;;;;;4.90;2.17;;;20.60;99.90;;;;;;5073224;28;19920;-63
2023/09/19 10:14:15;;;;;;;6.45;2.00;;;20.60;99.90;;;;;;5064473;28;20048;-62
2023/09/19 10:16:49;;;;;;;3.65;2.10;;;20.50;99.90;;;;;;5073221;28;20059;-62
2023/09/19 10:19:24;;;;;;;3.30;2.25;;;20.60;99.90;;;;;;5069637;28;20155;-63
2023/09/19 10:21:56;;;;;;;3.63;2.25;;;20.70;99.90;;;;;;5065002;28;20485;-63
2023/09/19 10:24:24;;;;;;;8.48;2.53;;;20.80;99.90;;;;;;5072300;28;20043;-63
2023/09/19 10:26:54;;;;;;;3.85;2.13;;;20.80;99.90;;;;;;5062346;28;20048;-63
2023/09/19 10:29:22;;;;;;;7.13;2.15;;;20.70;99.90;;;;;;5068805;28;20055;-63
2023/09/19 10:31:53;;;;;;;5.60;2.38;;;20.40;99.90;;;;;;5071895;28;20036;-63
2023/09/19 10:34:22;;;;;;;6.45;2.00;;;20.10;99.90;;;;;;5073296;28;20055;-62
2023/09/19 10:36:51;;;;;;;3.08;1.77;;;19.90;99.90;;;;;;5065139;28;20040;-62
2023/09/19 10:39:19;;;;;;;6.05;1.80;;;19.70;99.90;;;;;;5072742;28;20489;-63
2023/09/19 10:41:53;;;;;;;7.85;2.42;;;19.60;99.90;;;;;;5072395;28;20482;-63
2023/09/19 10:44:25;;;;;;;6.18;2.35;;;19.50;99.90;;;;;;5065465;28;20041;-61
2023/09/19 10:46:53;;;;;;;4.65;2.17;;;19.30;99.90;;;;;;5070581;28;20497;-63
2023/09/19 10:49:21;;;;;;;3.25;2.08;;;19.30;99.90;;;;;;5071845;28;20472;-63
2023/09/19 10:51:54;;;;;;;5.85;1.98;;;19.20;99.90;;;;;;5063654;28;20044;-63
2023/09/19 10:54:26;;;;;;;5.88;2.17;;;19.20;99.90;;;;;;5072241;28;20063;-62
2023/09/19 10:56:54;;;;;;;3.75;2.45;;;19.10;99.90;;;;;;5062421;28;20048;-63
2023/09/19 10:59:21;;;;;;;5.20;2.55;;;19.10;99.90;;;;;;5072491;28;20087;-63
2023/09/19 11:01:56;;;;;;;8.52;3.10;;;19.10;99.90;;;;;;5068002;28;20080;-63
2023/09/19 11:04:31;;;;;;;7.15;2.72;;;19.20;99.90;;;;;;5068352;28;20555;-63
2023/09/19 11:07:11;;;;;;;5.35;3.20;;;19.30;99.90;;;;;;5063516;28;20090;-64
2023/09/19 11:09:57;;;;;;;9.48;3.38;;;19.40;99.90;;;;;;5063172;28;20045;-64
2023/09/19 11:12:30;;;;;;;5.45;3.00;;;19.60;99.90;;;;;;5071398;28;20037;-63
2023/09/19 11:14:58;;;;;;;6.20;3.10;;;19.80;99.90;;;;;;5063409;28;20041;-63
2023/09/19 11:17:32;;;;;;;7.88;3.03;;;20.20;99.90;;;;;;5072431;28;20032;-63
2023/09/19 11:20:17;;;;;;;3.05;2.40;;;20.40;99.90;;;;;;5065576;28;20509;-63
2023/09/19 11:22:56;;;;;;;6.15;3.38;;;20.40;99.90;;;;;;5068857;28;20049;-63
2023/09/19 11:25:30;;;;;;;3.35;2.60;;;20.30;99.90;;;;;;5071176;28;20055;-63
2023/09/19 11:28:28;;;;;;;5.13;2.75;;;20.30;99.90;;;;;;5067876;28;20090;-63
2023/09/19 11:30:58;;;;;;;5.97;2.78;;;20.70;99.90;;;;;;5071682;28;20059;-63
2023/09/19 11:33:33;;;;;;;5.30;2.55;;;20.90;99.90;;;;;;5071478;28;20044;-63
2023/09/19 11:36:04;;;;;;;2.33;2.00;;;20.90;99.90;;;;;;5071928;28;20052;-63
2023/09/19 11:38:50;;;;;;;4.53;2.30;;;20.90;99.90;;;;;;5069780;28;20044;-63
2023/09/19 11:41:26;;;;;;;4.75;2.47;;;20.80;99.90;;;;;;5071262;28;20039;-63
2023/09/19 11:44:00;;;;;;;3.55;2.40;;;20.80;99.90;;;;;;5068940;28;20043;-63
2023/09/19 11:46:28;;;;;;;7.30;2.38;;;21.20;99.90;;;;;;5071726;28;20037;-63
2023/09/19 11:49:06;;;;;;;3.83;1.85;;;21.40;99.90;;;;;;5067786;28;20032;-64
2023/09/19 11:51:42;;;;;;;6.53;1.63;;;21.80;99.90;;;;;;5071340;28;20036;-63
2023/09/19 11:54:17;;;;;;;5.05;2.00;;;21.90;99.90;;;;;;5071149;28;20127;-63
2023/09/19 11:56:45;;;;;;;3.58;1.92;;;22.00;99.90;;;;;;5068544;28;20396;-63
2023/09/19 11:59:22;;;;;;;6.82;1.83;;;22.20;99.90;;;;;;5071358;28;20047;-63
2023/09/19 12:02:00;;;;;;;3.30;1.70;;;22.00;99.90;;;;;;5068343;28;20040;-63
2023/09/19 12:04:43;;;;;;;4.10;1.83;;;22.10;99.90;;;;;;5066507;28;20040;-63
2023/09/19 12:07:15;;;;;;;5.28;1.92;;;22.20;99.90;;;;;;5070151;28;20037;-63
2023/09/19 12:09:48;;;;;;;1.38;1.27;;;22.40;99.90;;;;;;5070737;28;20037;-63
2023/09/19 12:12:26;;;;;;;3.40;2.20;;;22.50;99.90;;;;;;5067601;28;20378;-63
2023/09/19 12:14:57;;;;;;;3.75;1.83;;;22.30;99.90;;;;;;5071134;28;20049;-63
2023/09/19 12:17:35;;;;;;;2.97;1.77;;;22.20;99.90;;;;;;5071058;28;20538;-62
2023/09/19 12:20:12;;;;;;;2.85;2.03;;;22.30;99.90;;;;;;5058432;28;20072;-63
2023/09/19 12:22:46;;;;;;;3.33;1.70;;;22.50;99.90;;;;;;5067097;28;20037;-63
2023/09/19 12:25:16;;;;;;;2.25;1.40;;;22.80;99.90;;;;;;5070992;28;20040;-63
2023/09/19 12:27:47;;;;;;;1.25;1.13;;;23.10;99.90;;;;;;5059747;28;20048;-60
2023/09/19 12:30:17;;;;;;;6.50;1.77;;;23.40;99.90;;;;;;5070839;28;20060;-63
2023/09/19 12:32:49;;;;;;;3.63;1.60;;;23.60;99.90;;;;;;5069846;28;20048;-62
2023/09/19 12:35:36;;;;;;;3.55;1.50;;;23.60;99.90;;;;;;5065595;28;20083;-63
2023/09/19 12:38:03;;;;;;;2.78;1.10;;;23.30;99.90;;;;;;5071262;28;20485;-63
2023/09/19 12:40:33;;;;;;;3.63;1.40;;;23.00;99.90;;;;;;5070053;28;20052;-62
2023/09/19 12:43:04;;;;;;;1.77;1.10;;;22.80;99.90;;;;;;5066927;28;21480;-63
2023/09/19 12:45:32;;;;;;;2.47;1.10;;;22.70;99.90;;;;;;5066370;28;20079;-63
2023/09/19 12:48:22;;;;;;;2.63;0.93;;;22.30;99.90;;;;;;5070192;28;20044;-63
2023/09/19 12:51:11;;;;;;;1.70;0.93;;;21.80;99.90;;;;;;5061768;28;20075;-63
2023/09/19 12:53:57;;;;;;;6.82;1.35;;;21.50;99.90;;;;;;5070297;28;20051;-63
2023/09/19 12:56:25;;;;;;;1.92;0.80;;;21.60;99.90;;;;;;5061150;28;20062;-63
2023/09/19 12:58:58;;;;;;;1.65;1.10;;;21.70;99.90;;;;;;5070377;28;20036;-61
2023/09/19 13:01:29;;;;;;;2.58;1.25;;;21.60;99.90;;;;;;5069668;28;20064;-63
2023/09/19 13:04:18;;;;;;;3.97;1.20;;;21.80;99.90;;;;;;5059217;28;20118;-63
2023/09/19 13:06:54;;;;;;;1.35;1.13;;;22.20;99.90;;;;;;5067556;28;20032;-63
2023/09/19 13:09:28;;;;;;;2.78;1.27;;;22.70;99.90;;;;;;5068888;28;20489;-63
2023/09/19 13:11:55;;;;;;;5.80;1.10;;;22.90;99.90;;;;;;5072172;28;20139;-63
2023/09/19 13:14:24;;;;;;;1.95;1.10;;;23.10;99.90;;;;;;5074836;28;20044;-63
2023/09/19 13:17:03;;;;;;;2.75;1.10;;;23.20;99.90;;;;;;5073627;28;20442;-63